Time;durP1;ratioP1;P1;durP2;ratioP2;P2;SDS_P1;SDS_P2;PMS_P1;PMS_P2;Temp;Humidity;BMP_temperature;BMP_pressure;BME280_temperature;BME280_humidity;BME280_pressure;Samples;Min_cycle;Max_cycle;Signal;HPM_P1;HPM_P2
2021/06/02 00:01:27;;;;;;;6.35;4.22;;;;;;;11.27;67.93;99840.63;5114369;28;20134;-70
2021/06/02 00:04:02;;;;;;;7.75;3.97;;;;;;;11.08;68.37;99834.69;5114409;28;20047;-70
2021/06/02 00:06:36;;;;;;;6.85;3.80;;;;;;;11.08;68.10;99838.94;5114428;28;20070;-70
2021/06/02 00:09:10;;;;;;;6.03;3.50;;;;;;;11.15;67.92;99841.47;5114400;28;20059;-70
2021/06/02 00:11:42;;;;;;;5.95;3.08;;;;;;;11.29;67.86;99838.91;5114256;28;20058;-70
2021/06/02 00:14:17;;;;;;;6.65;3.35;;;;;;;11.47;67.70;99851.66;5113216;28;20055;-69
2021/06/02 00:16:50;;;;;;;6.35;3.53;;;;;;;11.44;67.39;99856.78;5114019;28;20047;-70
2021/06/02 00:19:22;;;;;;;5.60;3.35;;;;;;;11.43;66.90;99840.59;5113976;28;20116;-70
2021/06/02 00:21:53;;;;;;;6.45;3.40;;;;;;;11.52;67.00;99849.94;5114181;28;20058;-69
2021/06/02 00:24:27;;;;;;;6.90;3.50;;;;;;;11.52;66.52;99852.50;5114456;28;20520;-70
2021/06/02 00:27:00;;;;;;;5.63;3.70;;;;;;;11.49;66.69;99847.41;5114204;28;20093;-70
2021/06/02 00:29:36;;;;;;;6.65;3.40;;;;;;;11.57;66.51;99845.66;5114140;28;20493;-68
2021/06/02 00:32:09;;;;;;;6.55;3.40;;;;;;;11.53;66.42;99841.44;5114080;28;20055;-70
2021/06/02 00:34:41;;;;;;;5.63;3.60;;;;;;;11.41;66.71;99833.78;5114675;28;20124;-70
2021/06/02 00:37:14;;;;;;;6.53;3.50;;;;;;;11.41;66.98;99839.75;5117914;28;20073;-69
2021/06/02 00:39:52;;;;;;;6.30;3.53;;;;;;;11.49;66.36;99847.41;5118189;28;20112;-70
2021/06/02 00:42:26;;;;;;;5.88;3.58;;;;;;;11.49;66.23;99842.31;5117907;28;20451;-70
2021/06/02 00:44:59;;;;;;;6.75;3.58;;;;;;;11.47;66.28;99843.97;5118116;28;20100;-70
2021/06/02 00:47:31;;;;;;;5.53;3.33;;;;;;;11.50;66.13;99854.22;5118036;27;20511;-70
2021/06/02 00:50:07;;;;;;;5.75;3.15;;;;;;;11.50;65.97;99843.13;5118316;28;20504;-70
2021/06/02 00:52:40;;;;;;;6.60;3.22;;;;;;;11.45;66.17;99840.59;5117958;28;20497;-70
2021/06/02 00:55:13;;;;;;;6.38;3.28;;;;;;;11.42;66.08;99835.50;5117834;28;20055;-70
2021/06/02 00:57:50;;;;;;;6.50;3.50;;;;;;;11.35;65.77;99849.09;5118156;28;20081;-70
2021/06/02 01:00:24;;;;;;;6.00;3.15;;;;;;;11.21;66.50;99848.28;5117883;28;20102;-69
2021/06/02 01:02:58;;;;;;;5.75;3.35;;;;;;;11.03;67.56;99855.94;5117683;28;20051;-70
2021/06/02 01:05:31;;;;;;;6.18;3.25;;;;;;;11.05;67.30;99854.25;5117706;28;20105;-70
2021/06/02 01:08:04;;;;;;;6.93;3.28;;;;;;;11.00;67.94;99854.25;5117656;28;20139;-70
2021/06/02 01:10:38;;;;;;;6.63;3.67;;;;;;;10.99;67.26;99854.25;5117744;28;20078;-70
2021/06/02 01:13:10;;;;;;;5.60;3.20;;;;;;;10.95;67.59;99858.50;5116575;28;20566;-70
2021/06/02 01:15:42;;;;;;;5.28;3.20;;;;;;;10.76;68.30;99857.63;5117451;28;20092;-70
2021/06/02 01:18:14;;;;;;;5.60;3.30;;;;;;;10.77;68.12;99859.31;5117239;28;20096;-70
2021/06/02 01:20:44;;;;;;;6.45;3.45;;;;;;;10.69;68.21;99861.03;5117196;28;20055;-70
2021/06/02 01:23:18;;;;;;;5.88;3.30;;;;;;;10.62;68.92;99863.56;5117321;28;20059;-70
2021/06/02 01:25:50;;;;;;;5.35;3.30;;;;;;;10.54;68.75;99870.34;5117378;28;20118;-70
2021/06/02 01:28:19;;;;;;;6.85;3.63;;;;;;;10.60;69.29;99860.16;5117287;28;20141;-70
2021/06/02 01:30:50;;;;;;;6.47;3.50;;;;;;;10.42;69.29;99866.06;5117245;28;20071;-69
2021/06/02 01:33:41;;;;;;;5.38;3.38;;;;;;;10.39;69.18;99870.31;5117135;28;20047;-70
2021/06/02 01:36:14;;;;;;;7.05;3.47;;;;;;;10.35;69.67;99869.44;5116959;28;20092;-69
2021/06/02 01:39:34;;;;;;;5.70;2.92;;;;;;;10.35;70.34;99868.59;5117098;28;20062;-69
2021/06/02 01:42:33;;;;;;;5.38;3.13;;;;;;;10.43;69.66;99872.03;5117029;28;20138;-70
2021/06/02 01:45:47;;;;;;;5.85;3.03;;;;;;;10.38;69.84;99874.56;5116955;28;20055;-70
2021/06/02 01:48:29;;;;;;;6.18;3.45;;;;;;;10.47;70.00;99869.50;4994979;28;20058;-71
2021/06/02 01:51:35;;;;;;;6.28;3.17;;;;;;;10.51;70.00;99866.09;4994889;28;20057;-69
2021/06/02 01:54:37;;;;;;;5.85;3.30;;;;;;;10.54;69.21;99871.19;4977911;28;20492;-70
2021/06/02 01:57:36;;;;;;;4.72;2.92;;;;;;;10.53;69.54;99868.66;4994291;28;20153;-70
2021/06/02 02:00:29;;;;;;;5.20;3.25;;;;;;;10.51;69.20;99867.81;5113118;28;20134;-69
2021/06/02 02:03:26;;;;;;;6.40;3.20;;;;;;;10.53;69.54;99856.72;5116631;28;20470;-70
2021/06/02 02:06:36;;;;;;;5.30;2.85;;;;;;;10.56;69.53;99868.66;5116571;28;20370;-69
2021/06/02 02:09:16;;;;;;;6.63;3.20;;;;;;;10.62;69.23;99866.97;5116458;28;20048;-69
2021/06/02 02:11:49;;;;;;;6.70;3.33;;;;;;;10.61;69.23;99865.25;5116457;28;20489;-70
2021/06/02 02:14:52;;;;;;;5.07;3.17;;;;;;;10.65;69.42;99884.00;5114012;28;20051;-69
2021/06/02 02:17:55;;;;;;;6.38;3.20;;;;;;;10.68;69.44;99876.31;5116027;28;20067;-70
2021/06/02 02:20:34;;;;;;;5.78;2.95;;;;;;;10.73;69.35;99872.94;5033673;28;20080;-70
2021/06/02 02:23:21;;;;;;;5.28;3.10;;;;;;;10.78;68.65;99878.91;5033353;28;20144;-70
2021/06/02 02:25:57;;;;;;;4.68;2.92;;;;;;;10.78;68.99;99885.72;5110316;27;20043;-71
2021/06/02 02:28:53;;;;;;;5.25;2.80;;;;;;;10.74;68.65;99879.78;5116113;28;20051;-70
2021/06/02 02:31:43;;;;;;;4.78;2.75;;;;;;;10.74;68.47;99879.78;5109117;28;20096;-70
2021/06/02 02:34:25;;;;;;;;;;;;;;;10.78;68.69;99878.91;5116378;28;20509;-70
2021/06/02 02:37:05;;;;;;;5.63;2.75;;;;;;;10.77;68.04;99869.53;5115803;28;19919;-68
2021/06/02 02:39:56;;;;;;;6.90;3.08;;;;;;;10.75;68.46;99875.47;5116186;28;20409;-68
2021/06/02 02:42:40;;;;;;;4.80;2.75;;;;;;;10.57;68.32;99881.44;5115846;28;20147;-71
2021/06/02 02:45:24;;;;;;;5.95;3.30;;;;;;;10.60;68.88;99881.44;5115721;28;20055;-71
2021/06/02 02:48:09;;;;;;;5.15;3.20;;;;;;;10.52;69.33;99878.00;5115771;28;20039;-70
2021/06/02 02:50:47;;;;;;;5.88;3.15;;;;;;;10.51;69.01;99875.47;5115650;28;20520;-70
2021/06/02 02:53:25;;;;;;;7.55;3.50;;;;;;;10.57;68.94;99886.53;5115620;28;20530;-70
2021/06/02 02:56:00;;;;;;;6.97;3.40;;;;;;;10.72;68.96;99886.53;5115479;28;20048;-69
2021/06/02 02:58:39;;;;;;;5.70;3.38;;;;;;;10.68;68.11;99892.50;5115014;28;20051;-69
2021/06/02 03:01:18;;;;;;;6.40;3.17;;;;;;;10.60;68.46;99891.66;5115480;28;20100;-70
2021/06/02 03:04:00;;;;;;;4.78;2.80;;;;;;;10.64;69.09;99895.91;5115450;28;20506;-70
2021/06/02 03:06:35;;;;;;;4.88;3.28;;;;;;;10.66;68.82;99906.97;5115324;28;20051;-69
2021/06/02 03:09:18;;;;;;;5.30;3.15;;;;;;;10.61;68.80;99903.56;5115352;28;20052;-69
2021/06/02 03:11:56;;;;;;;6.35;3.10;;;;;;;10.64;69.28;99903.56;5115290;28;20134;-70
2021/06/02 03:14:45;;;;;;;6.05;3.25;;;;;;;10.58;68.80;99902.72;5114291;28;20051;-70
2021/06/02 03:17:24;;;;;;;5.78;2.85;;;;;;;10.39;69.40;99896.66;5114765;28;20423;-69
2021/06/02 03:20:04;;;;;;;6.85;3.10;;;;;;;10.21;70.18;99903.41;5114817;28;20052;-69
2021/06/02 03:22:52;;;;;;;6.88;3.45;;;;;;;10.34;70.65;99908.56;5115078;28;20047;-69
2021/06/02 03:25:27;;;;;;;5.38;3.20;;;;;;;10.39;70.39;99911.16;5114967;28;20104;-69
2021/06/02 03:28:15;;;;;;;6.57;3.25;;;;;;;10.31;70.39;99903.47;5115268;28;20067;-70
2021/06/02 03:30:57;;;;;;;6.57;3.22;;;;;;;10.41;70.92;99902.66;5114925;28;20428;-70
2021/06/02 03:33:41;;;;;;;9.15;4.60;;;;;;;10.54;70.61;99906.94;5114860;28;20051;-69
2021/06/02 03:36:24;;;;;;;12.27;5.63;;;;;;;10.65;70.00;99918.00;5114437;28;20075;-70
2021/06/02 03:39:05;;;;;;;9.65;4.50;;;;;;;10.76;69.98;99918.91;5114697;28;20055;-69
2021/06/02 03:41:56;;;;;;;9.60;5.20;;;;;;;10.73;69.55;99924.00;5114724;28;20056;-70
2021/06/02 03:45:01;;;;;;;15.70;7.10;;;;;;;10.83;69.06;99924.88;5114682;28;20044;-68
2021/06/02 03:47:53;;;;;;;13.25;5.38;;;;;;;10.80;69.07;99927.41;5071676;28;20506;-69
2021/06/02 03:50:28;;;;;;;9.13;4.47;;;;;;;10.86;69.76;99934.25;5072015;28;20083;-69
2021/06/02 03:53:14;;;;;;;8.38;4.68;;;;;;;10.99;69.65;99941.09;5071967;28;20079;-69
2021/06/02 03:55:55;;;;;;;10.38;5.90;;;;;;;11.18;68.96;99938.53;5072097;28;20490;-70
2021/06/02 03:58:41;;;;;;;16.73;7.45;;;;;;;11.36;68.34;99938.56;5071577;28;20068;-69
2021/06/02 04:01:35;;;;;;;16.90;9.27;;;;;;;11.52;68.26;99929.16;5071819;28;20049;-69
2021/06/02 04:04:17;;;;;;;11.57;5.63;;;;;;;11.71;67.54;99933.44;5012219;28;20133;-69
2021/06/02 04:06:54;;;;;;;9.13;5.05;;;;;;;11.78;67.50;99932.59;5011960;28;20089;-69
2021/06/02 04:09:25;;;;;;;7.30;4.40;;;;;;;11.84;67.28;99937.72;5011922;28;20115;-69
2021/06/02 04:12:15;;;;;;;8.32;5.07;;;;;;;12.01;66.70;99940.22;5039994;28;20045;-69
2021/06/02 04:14:59;;;;;;;7.57;4.30;;;;;;;12.17;66.66;99935.91;5070608;28;20049;-69
2021/06/02 04:17:33;;;;;;;6.75;3.90;;;;;;;12.29;66.22;99940.97;5071441;28;20094;-70
2021/06/02 04:20:07;;;;;;;6.10;3.35;;;;;;;12.44;66.05;99948.63;5071752;28;20135;-69
2021/06/02 04:22:42;;;;;;;9.82;5.00;;;;;;;12.61;65.58;99949.41;5071637;28;20406;-70
2021/06/02 04:25:16;;;;;;;9.38;5.55;;;;;;;12.78;65.11;99947.59;5071813;28;20052;-70
2021/06/02 04:27:49;;;;;;;10.27;5.10;;;;;;;12.92;64.90;99950.94;5077010;28;20052;-70
2021/06/02 04:30:26;;;;;;;11.20;6.55;;;;;;;13.10;64.38;99948.28;5113868;28;20063;-70
2021/06/02 04:33:00;;;;;;;13.23;5.95;;;;;;;13.29;64.05;99952.41;5114138;28;20135;-70
2021/06/02 04:35:34;;;;;;;12.32;5.78;;;;;;;13.52;63.52;99953.94;5114139;28;20059;-70
2021/06/02 04:38:06;;;;;;;9.60;5.75;;;;;;;13.70;63.28;99952.06;5114006;28;20370;-70
2021/06/02 04:40:40;;;;;;;6.85;3.55;;;;;;;13.88;63.29;99953.63;5114050;28;20044;-71
2021/06/02 04:43:14;;;;;;;7.35;3.60;;;;;;;14.18;62.63;99955.88;5113970;28;20059;-70
2021/06/02 04:45:55;;;;;;;7.72;3.20;;;;;;;14.37;62.09;99947.13;5113913;28;20134;-70
2021/06/02 04:48:28;;;;;;;7.18;3.88;;;;;;;14.59;61.64;99953.69;5113610;28;20066;-70
2021/06/02 04:51:11;;;;;;;9.55;4.53;;;;;;;14.88;60.51;99957.59;5113947;28;20044;-71
2021/06/02 04:54:09;;;;;;;5.60;3.28;;;;;;;15.11;59.77;99960.72;5113896;28;20083;-70
2021/06/02 04:57:18;;;;;;;10.75;3.60;;;;;;;15.38;58.29;99960.28;5111589;28;20562;-71
2021/06/02 05:00:14;;;;;;;5.67;3.30;;;;;;;15.54;56.99;99960.94;5071213;28;20072;-70
2021/06/02 05:03:16;;;;;;;6.15;3.47;;;;;;;15.66;55.18;99956.44;5071299;28;20082;-71
2021/06/02 05:06:23;;;;;;;6.47;3.22;;;;;;;15.78;55.04;99963.97;5054447;28;20087;-71
2021/06/02 05:09:07;;;;;;;7.70;3.63;;;;;;;15.97;54.07;99970.47;5070693;28;20413;-70
2021/06/02 05:12:07;;;;;;;6.32;3.00;;;;;;;16.19;53.40;99967.50;5071313;28;20052;-70
2021/06/02 05:15:04;;;;;;;5.47;3.05;;;;;;;16.26;52.96;99969.09;5053062;28;20049;-70
2021/06/02 05:18:08;;;;;;;5.40;2.70;;;;;;;16.39;52.70;99975.69;5070945;28;20047;-71
2021/06/02 05:24:15;;;;;;;7.70;3.42;;;;;;;16.51;52.27;99981.47;5090795;28;20052;-70
2021/06/02 05:27:12;;;;;;;7.13;3.50;;;;;;;16.70;51.93;99981.94;5117275;28;20130;-71
2021/06/02 05:30:02;;;;;;;4.75;2.85;;;;;;;16.88;51.64;99986.75;5117005;28;20056;-70
2021/06/02 05:33:01;;;;;;;7.57;3.40;;;;;;;17.06;51.73;99986.31;5117474;28;20044;-71
2021/06/02 05:36:02;;;;;;;7.65;3.47;;;;;;;17.22;51.27;99992.88;5116812;27;20067;-71
2021/06/02 05:38:50;;;;;;;7.00;3.28;;;;;;;17.29;51.02;99989.25;5116951;28;20036;-70
2021/06/02 05:41:42;;;;;;;9.32;3.30;;;;;;;17.30;50.41;99984.91;5116988;28;20044;-69
2021/06/02 05:44:35;;;;;;;6.78;3.38;;;;;;;17.39;50.50;99984.72;5116956;28;20073;-70
2021/06/02 05:47:32;;;;;;;5.53;3.03;;;;;;;17.49;50.37;99999.13;5116798;28;20070;-71
2021/06/02 05:50:37;;;;;;;7.35;5.32;;;;;;;17.53;49.87;99993.03;5115395;28;20051;-70
2021/06/02 05:53:31;;;;;;;5.30;3.10;;;;;;;17.59;49.85;99998.03;5115628;28;20116;-71
2021/06/02 05:56:44;;;;;;;10.93;3.88;;;;;;;17.85;49.72;99994.81;5116602;28;20096;-70
2021/06/02 05:59:54;;;;;;;8.20;3.50;;;;;;;18.01;50.61;99993.53;5116590;28;20433;-71
2021/06/02 06:02:51;;;;;;;9.85;3.72;;;;;;;18.15;48.87;99994.03;5115456;27;20485;-71
2021/06/02 06:05:37;;;;;;;5.88;3.10;;;;;;;18.15;48.43;99993.16;5033725;28;20491;-71
2021/06/02 06:08:43;;;;;;;5.35;2.90;;;;;;;18.25;48.46;99987.72;5116185;28;20122;-71
2021/06/02 06:11:53;;;;;;;6.43;3.00;;;;;;;18.33;48.38;99993.50;5116359;28;20086;-70
2021/06/02 06:15:04;;;;;;;6.95;2.72;;;;;;;18.51;47.74;99989.63;5079537;28;20122;-70
2021/06/02 06:17:48;;;;;;;4.80;2.80;;;;;;;18.64;47.62;99985.81;5086909;28;20063;-70
2021/06/02 06:20:48;;;;;;;6.80;3.00;;;;;;;18.76;47.62;99988.03;5116330;28;20063;-68
2021/06/02 06:23:47;;;;;;;5.40;2.90;;;;;;;18.90;47.62;99979.88;5116453;28;20053;-70
2021/06/02 06:26:19;;;;;;;7.93;3.25;;;;;;;18.97;46.62;99978.78;5110630;28;20049;-70
2021/06/02 06:28:55;;;;;;;5.70;2.92;;;;;;;19.02;46.31;99977.78;5115899;28;20051;-71
2021/06/02 06:31:33;;;;;;;4.85;2.88;;;;;;;19.10;46.13;99980.13;5115764;27;20051;-70
2021/06/02 06:34:10;;;;;;;6.35;3.00;;;;;;;19.21;45.46;99980.63;5115769;28;20081;-70
2021/06/02 06:36:45;;;;;;;4.70;2.80;;;;;;;19.31;44.93;99974.28;5115657;28;20097;-71
2021/06/02 06:39:30;;;;;;;5.55;2.65;;;;;;;19.40;44.37;99981.78;5115858;28;20052;-71
2021/06/02 06:42:02;;;;;;;4.65;2.47;;;;;;;19.44;44.11;99975.59;5115680;28;20511;-70
2021/06/02 06:44:34;;;;;;;7.32;2.95;;;;;;;19.58;44.08;99976.00;5115098;28;20043;-70
2021/06/02 06:47:09;;;;;;;7.68;2.90;;;;;;;19.85;44.29;99982.88;5115551;28;20043;-71
2021/06/02 06:49:45;;;;;;;8.05;3.00;;;;;;;19.93;44.11;99993.84;5115595;28;20108;-71
2021/06/02 06:52:27;;;;;;;4.78;2.38;;;;;;;19.81;44.29;99998.56;5115380;28;20138;-69
2021/06/02 06:55:01;;;;;;;4.32;2.55;;;;;;;19.52;43.52;99991.75;5115564;28;20126;-69
2021/06/02 06:57:34;;;;;;;4.15;2.42;;;;;;;19.65;43.72;99993.03;5115395;28;20070;-70
2021/06/02 07:00:10;;;;;;;4.25;2.45;;;;;;;19.94;43.40;99987.72;5115293;28;20063;-71
2021/06/02 07:02:44;;;;;;;4.97;2.55;;;;;;;20.16;43.11;99987.00;5115694;28;20079;-71
2021/06/02 07:05:18;;;;;;;7.30;3.20;;;;;;;20.24;42.94;99987.63;5115398;28;20506;-71
2021/06/02 07:07:48;;;;;;;5.43;2.70;;;;;;;20.34;42.48;99989.00;5115399;28;20048;-70
2021/06/02 07:10:22;;;;;;;4.85;2.75;;;;;;;20.40;42.78;99984.44;5115030;28;20108;-71
2021/06/02 07:12:58;;;;;;;4.57;2.25;;;;;;;20.63;42.61;99991.38;5115244;28;20496;-70
2021/06/02 07:15:31;;;;;;;4.07;2.50;;;;;;;20.38;42.46;99990.56;5115468;28;20073;-68
2021/06/02 07:18:06;;;;;;;4.47;2.55;;;;;;;20.08;42.55;99988.09;5114910;28;20036;-71
2021/06/02 07:20:39;;;;;;;5.72;2.47;;;;;;;20.03;42.49;99982.22;5115059;28;20055;-71
2021/06/02 07:23:08;;;;;;;4.85;2.42;;;;;;;20.23;42.35;99981.56;5115036;28;20071;-71
2021/06/02 07:25:40;;;;;;;4.40;2.60;;;;;;;20.38;42.33;99981.03;5114978;28;20043;-70
2021/06/02 07:28:13;;;;;;;4.88;2.63;;;;;;;20.53;42.47;99984.84;5114944;28;20355;-72
2021/06/02 07:30:45;;;;;;;6.00;2.60;;;;;;;20.36;41.81;99987.19;5114929;28;20130;-70
2021/06/02 07:33:16;;;;;;;4.13;2.30;;;;;;;20.51;40.94;99986.66;5114596;28;20052;-70
2021/06/02 07:35:48;;;;;;;3.67;2.13;;;;;;;20.65;40.64;99984.38;5114606;28;20457;-70
2021/06/02 07:38:20;;;;;;;4.15;2.38;;;;;;;20.59;42.05;99980.25;5114639;28;20071;-68
2021/06/02 07:40:52;;;;;;;4.72;2.42;;;;;;;20.44;43.09;99980.00;5114735;28;20130;-71
2021/06/02 07:43:24;;;;;;;4.47;2.30;;;;;;;20.85;43.57;99988.84;5114306;28;20482;-71
2021/06/02 07:45:59;;;;;;;4.25;2.42;;;;;;;20.98;42.94;99988.31;5114616;28;20062;-72
2021/06/02 07:48:32;;;;;;;7.57;2.45;;;;;;;20.99;41.95;99986.56;5114663;28;20112;-70
2021/06/02 07:51:05;;;;;;;5.25;2.53;;;;;;;20.96;41.07;99984.94;5114420;28;20048;-72
2021/06/02 07:53:34;;;;;;;5.80;2.40;;;;;;;21.03;40.86;99991.56;5114822;28;20048;-70
2021/06/02 07:56:07;;;;;;;3.28;2.05;;;;;;;21.28;40.14;99987.13;5114446;28;20104;-71
2021/06/02 07:58:39;;;;;;;4.68;2.20;;;;;;;21.35;39.00;99982.56;5112866;28;20150;-71
2021/06/02 08:01:11;;;;;;;3.65;2.17;;;;;;;21.38;39.34;99986.81;5114383;28;20051;-70
2021/06/02 08:03:44;;;;;;;3.97;2.40;;;;;;;21.44;38.74;99992.59;5114321;28;20062;-71
2021/06/02 08:06:13;;;;;;;4.13;1.98;;;;;;;21.32;37.98;99993.94;5114197;28;20064;-68
2021/06/02 08:08:42;;;;;;;3.97;2.28;;;;;;;21.29;38.58;99998.38;5114195;28;20150;-70
2021/06/02 08:11:11;;;;;;;8.90;2.30;;;;;;;21.32;39.05;99993.06;5114060;28;20560;-71
2021/06/02 08:13:40;;;;;;;3.72;2.17;;;;;;;21.52;39.94;99995.75;5113634;28;20296;-70
2021/06/02 08:16:12;;;;;;;4.28;2.20;;;;;;;21.54;40.04;100001.72;5114099;28;20043;-71
2021/06/02 08:18:41;;;;;;;5.13;2.35;;;;;;;21.45;39.04;99993.44;5113004;28;20066;-71
2021/06/02 08:21:11;;;;;;;3.55;2.10;;;;;;;21.38;38.38;100001.47;5113578;28;20043;-69
2021/06/02 08:23:41;;;;;;;5.50;2.20;;;;;;;21.41;38.31;99999.66;5114027;28;20055;-69
2021/06/02 08:26:14;;;;;;;3.20;2.10;;;;;;;21.61;39.00;99999.69;5114172;28;20047;-70
2021/06/02 08:28:46;;;;;;;3.50;2.10;;;;;;;21.69;39.46;99997.66;5112937;28;20468;-68
2021/06/02 08:31:18;;;;;;;6.07;2.10;;;;;;;22.01;39.77;100005.81;5113215;28;20104;-69
2021/06/02 08:33:47;;;;;;;3.70;2.15;;;;;;;21.82;37.60;99993.63;5113735;28;20119;-69
2021/06/02 08:36:18;;;;;;;6.13;2.13;;;;;;;21.92;37.65;99987.16;5114250;28;20477;-71
2021/06/02 08:38:48;;;;;;;4.13;2.25;;;;;;;22.27;37.79;99996.03;5114022;28;20300;-68
2021/06/02 08:41:17;;;;;;;4.47;1.98;;;;;;;22.19;37.23;99995.56;5113791;28;20040;-70
2021/06/02 08:43:48;;;;;;;3.55;2.08;;;;;;;22.14;37.29;99993.16;5113810;28;20092;-68
2021/06/02 08:46:18;;;;;;;3.80;1.92;;;;;;;22.06;36.94;100003.03;5098038;28;20044;-70
2021/06/02 08:49:07;;;;;;;5.00;2.25;;;;;;;22.16;37.54;99998.28;5083345;28;20036;-68
2021/06/02 08:51:38;;;;;;;3.92;2.13;;;;;;;22.22;38.13;99998.84;5093150;28;20048;-68
2021/06/02 08:54:08;;;;;;;3.38;2.20;;;;;;;22.16;37.39;100004.34;5093807;28;20386;-68
2021/06/02 08:56:42;;;;;;;4.75;1.90;;;;;;;22.45;37.30;100000.47;5095594;28;20122;-69
2021/06/02 08:59:14;;;;;;;4.85;2.15;;;;;;;22.55;36.82;100007.81;5097080;28;20434;-70
2021/06/02 09:01:43;;;;;;;3.50;2.03;;;;;;;22.44;37.01;100001.38;5097317;28;20060;-70
2021/06/02 09:04:12;;;;;;;3.42;2.08;;;;;;;22.31;36.39;100006.28;5097288;28;20075;-69
2021/06/02 09:06:45;;;;;;;3.97;2.22;;;;;;;22.44;36.18;100002.22;5096988;28;20058;-71
2021/06/02 09:09:15;;;;;;;4.28;2.10;;;;;;;22.63;36.39;100003.13;5097156;28;20059;-71
2021/06/02 09:11:47;;;;;;;3.75;2.08;;;;;;;22.83;36.20;100009.19;5096821;28;20052;-72
2021/06/02 09:14:28;;;;;;;6.43;1.92;;;;;;;22.85;35.29;100020.38;5096217;28;20086;-71
2021/06/02 09:16:58;;;;;;;4.47;2.00;;;;;;;22.84;35.60;100006.53;5078648;28;20135;-72
2021/06/02 09:19:36;;;;;;;3.70;2.10;;;;;;;23.27;35.81;100007.97;5096708;28;20058;-69
2021/06/02 09:22:12;;;;;;;5.00;2.33;;;;;;;23.11;35.38;100004.38;5096862;28;20055;-71
2021/06/02 09:24:56;;;;;;;4.00;2.08;;;;;;;22.96;34.64;100012.94;5096667;28;20055;-72
2021/06/02 09:27:47;;;;;;;3.90;2.25;;;;;;;22.90;35.07;100015.81;5096843;28;20101;-70
2021/06/02 09:30:20;;;;;;;4.15;2.30;;;;;;;22.90;35.71;100015.81;5097106;28;20048;-72
2021/06/02 09:32:52;;;;;;;4.40;2.10;;;;;;;22.61;36.07;100017.97;5096403;28;20094;-72
2021/06/02 09:35:22;;;;;;;4.57;2.58;;;;;;;22.48;35.91;100011.56;5095318;28;20047;-70
2021/06/02 09:37:54;;;;;;;;;;;;;;;22.70;35.84;100006.28;5096904;28;20068;-69
2021/06/02 09:40:26;;;;;;;4.43;2.40;;;;;;;22.77;36.45;100006.88;5096265;28;19924;-70
2021/06/02 09:42:56;;;;;;;3.80;2.20;;;;;;;22.70;36.19;100005.47;5096609;28;20067;-70
2021/06/02 09:45:25;;;;;;;4.22;2.00;;;;;;;22.84;36.02;100005.69;5096246;28;20055;-70
2021/06/02 09:47:56;;;;;;;3.65;2.38;;;;;;;23.04;36.03;100000.38;5096449;28;20119;-68
2021/06/02 09:50:30;;;;;;;4.70;2.50;;;;;;;23.09;36.05;99999.25;5096251;28;20401;-69
2021/06/02 09:53:02;;;;;;;3.35;2.08;;;;;;;23.51;35.89;99992.97;5096341;28;20593;-70
2021/06/02 09:55:38;;;;;;;3.58;2.00;;;;;;;23.93;36.96;99994.28;5094887;28;20134;-69
2021/06/02 09:58:12;;;;;;;3.90;1.98;;;;;;;23.96;35.43;99994.16;5096138;28;20390;-69
2021/06/02 10:00:44;;;;;;;4.18;2.38;;;;;;;23.83;34.82;99987.00;5096171;28;20139;-70
2021/06/02 10:03:18;;;;;;;3.80;2.15;;;;;;;23.42;34.85;99991.63;5096211;28;20504;-66
2021/06/02 10:05:49;;;;;;;3.45;2.40;;;;;;;23.12;35.41;99996.53;5095956;28;20075;-69
2021/06/02 10:08:30;;;;;;;4.43;1.95;;;;;;;23.16;34.86;99998.06;5095824;28;20461;-71
2021/06/02 10:11:13;;;;;;;3.47;2.15;;;;;;;23.33;34.62;99992.91;5096078;28;20055;-70
2021/06/02 10:13:43;;;;;;;4.75;2.22;;;;;;;23.52;35.21;99998.09;5096077;28;20047;-66
2021/06/02 10:16:33;;;;;;;5.28;2.50;;;;;;;23.82;36.19;99996.59;5095909;28;20507;-70
2021/06/02 10:19:05;;;;;;;4.53;2.13;;;;;;;23.92;35.56;99995.19;5095685;28;20097;-66
2021/06/02 10:21:46;;;;;;;3.38;2.10;;;;;;;23.84;35.34;99989.53;5095909;28;20059;-70
2021/06/02 10:24:17;;;;;;;3.72;2.13;;;;;;;23.75;35.02;99990.00;5094543;28;20051;-71
2021/06/02 10:26:49;;;;;;;5.18;2.03;;;;;;;23.96;34.41;99988.09;5096063;28;20040;-69
2021/06/02 10:29:21;;;;;;;5.13;2.60;;;;;;;24.23;34.39;99980.66;5095710;28;20051;-69
2021/06/02 10:31:53;;;;;;;3.95;2.17;;;;;;;24.47;34.33;99980.22;5095677;28;20055;-70
2021/06/02 10:34:25;;;;;;;3.70;1.98;;;;;;;24.27;34.72;99982.16;5095930;28;20043;-70
2021/06/02 10:36:54;;;;;;;4.85;2.30;;;;;;;24.36;35.23;99979.91;5095823;28;20048;-67
2021/06/02 10:39:31;;;;;;;3.47;2.10;;;;;;;24.35;34.00;99987.84;5095697;28;20065;-71
2021/06/02 10:42:05;;;;;;;3.92;2.17;;;;;;;24.42;34.30;99981.38;5095439;28;20075;-70
2021/06/02 10:44:40;;;;;;;3.80;2.10;;;;;;;24.56;33.91;99986.72;5095823;28;20095;-71
2021/06/02 10:47:12;;;;;;;4.90;2.20;;;;;;;24.61;34.35;99980.31;5095349;28;20113;-70
2021/06/02 10:49:41;;;;;;;6.05;1.98;;;;;;;24.85;34.83;99991.25;5095093;28;20039;-71
2021/06/02 10:52:10;;;;;;;4.60;2.45;;;;;;;24.79;34.84;99986.34;5095236;28;20558;-66
2021/06/02 10:54:43;;;;;;;3.35;2.22;;;;;;;24.77;34.73;99997.78;5095054;28;20043;-70
2021/06/02 10:57:16;;;;;;;3.97;2.47;;;;;;;24.41;34.07;99992.72;5095097;28;20051;-70
2021/06/02 10:59:46;;;;;;;5.35;2.20;;;;;;;24.64;34.39;99998.41;5095176;28;20070;-71
2021/06/02 11:02:16;;;;;;;5.05;2.30;;;;;;;24.63;34.29;99991.53;5093920;28;20052;-69
2021/06/02 11:05:14;;;;;;;6.40;2.35;;;;;;;25.04;34.47;99991.94;5095067;28;20131;-71
2021/06/02 11:07:52;;;;;;;6.78;2.30;;;;;;;24.86;33.34;99987.69;5094970;28;20060;-68
2021/06/02 11:10:33;;;;;;;3.60;2.30;;;;;;;24.98;32.95;99986.22;5095003;28;20048;-71
2021/06/02 11:13:04;;;;;;;3.45;2.28;;;;;;;24.79;33.17;99985.50;5093929;28;20083;-68
2021/06/02 11:15:44;;;;;;;3.65;2.25;;;;;;;24.86;33.43;99987.69;5058268;28;20040;-68
2021/06/02 11:18:24;;;;;;;3.67;2.00;;;;;;;25.23;33.63;99989.13;5056315;28;20212;-68
2021/06/02 11:20:58;;;;;;;3.75;2.20;;;;;;;25.21;33.43;99997.06;5040083;28;20057;-66
2021/06/02 11:23:32;;;;;;;5.03;2.47;;;;;;;24.62;32.28;99988.97;5066455;28;20144;-65
2021/06/02 11:26:23;;;;;;;3.72;2.10;;;;;;;24.21;34.40;99979.88;5053577;28;20041;-70
2021/06/02 11:28:53;;;;;;;3.40;2.10;;;;;;;24.54;34.58;99986.78;5051355;28;20052;-69
2021/06/02 11:31:23;;;;;;;3.70;2.10;;;;;;;24.51;33.32;99980.88;5057787;28;20407;-70
2021/06/02 11:34:13;;;;;;;3.97;2.10;;;;;;;24.57;33.46;99980.56;5053768;28;20546;-70
2021/06/02 11:37:00;;;;;;;4.15;2.50;;;;;;;24.63;32.67;99986.31;5052122;28;20056;-71
2021/06/02 11:39:29;;;;;;;4.13;2.30;;;;;;;24.31;32.05;99983.69;5047324;28;20410;-70
2021/06/02 11:42:00;;;;;;;4.45;2.35;;;;;;;24.39;32.92;99981.53;5046850;28;20398;-71
2021/06/02 11:44:33;;;;;;;4.88;2.40;;;;;;;24.55;33.77;99982.41;5037307;28;20128;-70
2021/06/02 11:47:08;;;;;;;5.28;2.40;;;;;;;25.02;33.11;99972.88;5033885;28;20046;-69
2021/06/02 11:49:42;;;;;;;5.47;2.08;;;;;;;25.52;33.20;99971.84;5037409;28;20092;-69
2021/06/02 11:52:12;;;;;;;4.50;2.50;;;;;;;25.67;32.85;99976.19;5038996;28;20102;-67
2021/06/02 11:54:53;;;;;;;4.35;2.38;;;;;;;25.32;32.00;99980.78;5036452;28;20404;-71
2021/06/02 11:57:28;;;;;;;3.83;2.30;;;;;;;24.98;32.69;99979.19;5041108;28;20045;-70
2021/06/02 12:00:05;;;;;;;4.13;2.40;;;;;;;25.06;33.51;99979.63;5043029;28;20073;-69
2021/06/02 12:02:36;;;;;;;5.15;2.42;;;;;;;25.58;34.70;99976.72;5042578;28;20094;-72
2021/06/02 12:05:17;;;;;;;4.53;2.40;;;;;;;25.13;33.25;99970.50;5033654;28;20042;-71
2021/06/02 12:07:47;;;;;;;3.97;2.30;;;;;;;24.17;33.20;99965.28;5048140;28;20422;-71
2021/06/02 12:10:16;;;;;;;4.07;2.33;;;;;;;24.39;32.89;99973.69;5062751;28;20054;-67
2021/06/02 12:12:48;;;;;;;3.45;2.28;;;;;;;24.65;33.48;99975.75;5055474;28;20048;-66
2021/06/02 12:15:18;;;;;;;3.67;2.13;;;;;;;24.05;34.16;99976.31;5089676;28;20048;-71
2021/06/02 12:17:49;;;;;;;4.25;2.40;;;;;;;23.97;34.22;99974.13;5093754;28;20134;-67
2021/06/02 12:20:21;;;;;;;4.15;2.33;;;;;;;23.97;34.17;99980.16;5093433;28;20044;-68
2021/06/02 12:22:51;;;;;;;3.90;2.33;;;;;;;23.64;35.14;99974.03;5093564;28;20409;-69
2021/06/02 12:25:22;;;;;;;5.53;2.60;;;;;;;23.31;35.07;99968.69;5092566;28;20056;-71
2021/06/02 12:27:59;;;;;;;3.60;2.33;;;;;;;23.12;35.81;99977.44;5097612;28;20517;-69
2021/06/02 12:30:31;;;;;;;3.95;2.30;;;;;;;23.26;35.53;99969.81;5096050;28;20058;-70